createdAt,value
2023-05-08T00:02:12.123Z,98798.78
2023-05-08T00:04:38.696Z,98797.16
2023-05-08T00:07:05.262Z,98800.69
2023-05-08T00:09:31.766Z,98800.13
2023-05-08T00:11:58.282Z,98799.56
2023-05-08T00:14:24.750Z,98799.03
2023-05-08T00:16:51.353Z,98796.06
2023-05-08T00:19:17.995Z,98799.03
2023-05-08T00:21:44.575Z,98793.63
2023-05-08T00:24:11.159Z,98790.09
2023-05-08T00:26:37.762Z,98796.06
2023-05-08T00:29:06.501Z,98803.94
2023-05-08T00:31:34.024Z,98797.13
2023-05-08T00:34:00.576Z,98805.00
2023-05-08T00:36:27.589Z,98805.00
2023-05-08T00:38:54.126Z,98802.28
2023-05-08T00:41:20.610Z,98807.72
2023-05-08T00:43:47.221Z,98806.09
2023-05-08T00:46:14.055Z,98808.81
2023-05-08T00:48:41.047Z,98810.44
2023-05-08T00:51:09.575Z,98806.09
2023-05-08T00:53:39.199Z,98810.97
2023-05-08T00:56:06.772Z,98805.53
2023-05-08T00:58:33.691Z,98809.88
2023-05-08T01:01:00.906Z,98818.03
2023-05-08T01:03:28.665Z,98816.13
2023-05-08T01:05:55.355Z,98807.19
2023-05-08T01:08:21.987Z,98811.81
2023-05-08T01:11:13.050Z,98808.28
2023-05-08T01:13:59.802Z,98816.38
2023-05-08T01:16:38.636Z,98814.22
2023-05-08T01:19:23.624Z,98820.72
2023-05-08T01:22:00.612Z,98810.97
2023-05-08T01:24:47.433Z,98820.47
2023-05-08T01:27:55.108Z,98817.47
2023-05-08T01:30:33.470Z,98813.41
2023-05-08T01:33:10.955Z,98812.34
2023-05-08T01:35:45.512Z,98816.94
2023-05-08T01:38:34.849Z,98825.34
2023-05-08T01:41:10.589Z,98824.00
2023-05-08T01:43:46.209Z,98816.41
2023-05-08T01:46:18.746Z,98819.38
2023-05-08T01:48:59.215Z,98812.59
2023-05-08T01:51:28.775Z,98819.13
2023-05-08T01:54:04.619Z,98818.00
2023-05-08T01:56:32.504Z,98806.63
2023-05-08T01:59:01.525Z,98814.25
2023-05-08T02:01:30.046Z,98813.66
2023-05-08T02:03:58.069Z,98815.84
2023-05-08T02:06:27.104Z,98809.59
2023-05-08T02:08:56.182Z,98811.78
2023-05-08T02:11:24.747Z,98813.13
2023-05-08T02:13:52.705Z,98811.50
2023-05-08T02:16:20.584Z,98815.28
2023-05-08T02:18:52.260Z,98809.88
2023-05-08T02:21:19.697Z,98812.03
2023-05-08T02:23:48.350Z,98813.63
2023-05-08T02:26:16.318Z,98810.44
2023-05-08T02:28:43.424Z,98805.81
2023-05-08T02:31:12.110Z,98815.56
2023-05-08T02:33:41.604Z,98815.59
2023-05-08T02:36:10.877Z,98822.34
2023-05-08T02:38:39.735Z,98816.94
2023-05-08T02:41:07.962Z,98815.84
2023-05-08T02:43:35.294Z,98822.91
2023-05-08T02:46:14.585Z,98816.38
2023-05-08T02:48:53.094Z,98810.13
2023-05-08T02:52:06.325Z,98814.75
2023-05-08T02:54:38.150Z,98823.97
2023-05-08T02:57:49.043Z,98824.53
2023-05-08T03:00:20.682Z,98817.72
2023-05-08T03:02:54.670Z,98823.16
2023-05-08T03:05:28.929Z,98817.47
2023-05-08T03:07:59.944Z,98815.28
2023-05-08T03:10:31.879Z,98812.88
2023-05-08T03:13:02.728Z,98809.34
2023-05-08T03:15:45.094Z,98808.25
2023-05-08T03:18:16.408Z,98810.72
2023-05-08T03:20:46.402Z,98809.34
2023-05-08T03:23:14.772Z,98811.78
2023-05-08T03:25:43.300Z,98797.41
2023-05-08T03:28:10.663Z,98805.00
2023-05-08T03:30:38.374Z,98804.47
2023-05-08T03:33:07.456Z,98808.50
2023-05-08T03:35:38.133Z,98803.34
2023-05-08T03:38:06.694Z,98809.84
2023-05-08T03:40:42.564Z,98809.59
2023-05-08T03:43:11.235Z,98811.19
2023-05-08T03:45:39.633Z,98814.47
2023-05-08T03:48:07.682Z,98817.44
2023-05-08T03:50:37.968Z,98813.94
2023-05-08T03:53:04.770Z,98810.44
2023-05-08T03:55:32.236Z,98812.59
2023-05-08T03:58:07.678Z,98822.34
2023-05-08T04:00:59.449Z,98815.28
2023-05-08T04:03:47.718Z,98817.19
2023-05-08T04:06:30.726Z,98815.56
2023-05-08T04:09:12.385Z,98813.66
2023-05-08T04:11:49.863Z,98821.28
2023-05-08T04:14:20.240Z,98822.59
2023-05-08T04:17:00.189Z,98825.59
2023-05-08T04:19:33.302Z,98826.41
2023-05-08T04:22:05.178Z,98820.72
2023-05-08T04:24:35.235Z,98825.34
2023-05-08T04:27:03.302Z,98829.16
2023-05-08T04:29:31.168Z,98823.44
2023-05-08T04:31:59.184Z,98827.78
2023-05-08T04:34:26.089Z,98823.44
2023-05-08T04:36:52.704Z,98829.94
2023-05-08T04:39:20.083Z,98832.34
2023-05-08T04:41:48.081Z,98830.19
2023-05-08T04:44:14.812Z,98831.00
2023-05-08T04:46:41.341Z,98827.75
2023-05-08T04:49:07.958Z,98835.34
2023-05-08T04:51:34.546Z,98831.53
2023-05-08T04:54:01.156Z,98828.00
2023-05-08T04:56:27.683Z,98843.47
2023-05-08T04:58:54.207Z,98831.50
2023-05-08T05:01:20.777Z,98837.75
2023-05-08T05:03:47.393Z,98835.84
2023-05-08T05:06:13.907Z,98833.97
2023-05-08T05:08:40.471Z,98833.16
2023-05-08T05:11:06.942Z,98837.00
2023-05-08T05:13:33.449Z,98843.50
2023-05-08T05:16:00.376Z,98839.69
2023-05-08T05:18:26.854Z,98838.88
2023-05-08T05:20:53.418Z,98842.41
2023-05-08T05:23:19.905Z,98845.66
2023-05-08T05:25:46.489Z,98839.16
2023-05-08T05:28:13.013Z,98846.22
2023-05-08T05:30:39.520Z,98850.53
2023-05-08T05:33:06.004Z,98858.16
2023-05-08T05:35:32.489Z,98856.25
2023-05-08T05:37:58.977Z,98857.06
2023-05-08T05:40:25.476Z,98854.34
2023-05-08T05:42:52.261Z,98863.59
2023-05-08T05:45:18.773Z,98862.50
2023-05-08T05:47:49.994Z,98862.50
2023-05-08T05:50:18.593Z,98857.06
2023-05-08T05:52:45.671Z,98867.09
2023-05-08T05:55:12.645Z,98863.56
2023-05-08T05:57:39.320Z,98862.75
2023-05-08T06:00:08.269Z,98858.44
2023-05-08T06:02:36.670Z,98861.94
2023-05-08T06:05:03.966Z,98862.47
2023-05-08T06:07:30.646Z,98866.81
2023-05-08T06:09:57.117Z,98867.09
2023-05-08T06:12:23.634Z,98857.84
2023-05-08T06:14:52.146Z,98863.78
2023-05-08T06:17:19.152Z,98862.38
2023-05-08T06:19:50.477Z,98867.31
2023-05-08T06:22:18.465Z,98875.94
2023-05-08T06:24:45.285Z,98869.94
2023-05-08T06:27:12.185Z,98871.00
2023-05-08T06:29:38.742Z,98867.72
2023-05-08T06:32:05.649Z,98865.00
2023-05-08T06:34:32.209Z,98872.63
2023-05-08T06:36:58.805Z,98875.34
2023-05-08T06:39:25.234Z,98865.03
2023-05-08T06:41:51.727Z,98870.53
2023-05-08T06:44:18.220Z,98867.25
2023-05-08T06:46:44.734Z,98874.34
2023-05-08T06:49:11.291Z,98873.25
2023-05-08T06:51:38.311Z,98871.94
2023-05-08T06:54:08.146Z,98874.09
2023-05-08T06:56:35.367Z,98878.97
2023-05-08T06:59:08.234Z,98872.75
2023-05-08T07:01:35.237Z,98881.47
2023-05-08T07:04:01.927Z,98882.03
2023-05-08T07:06:28.669Z,98879.31
2023-05-08T07:08:55.120Z,98881.19
2023-05-08T07:11:21.991Z,98885.25
2023-05-08T07:13:48.735Z,98878.19
2023-05-08T07:16:16.200Z,98880.59
2023-05-08T07:18:43.781Z,98876.25
2023-05-08T07:21:10.816Z,98877.38
2023-05-08T07:23:37.261Z,98874.88
2023-05-08T07:26:03.769Z,98883.03
2023-05-08T07:28:30.363Z,98877.06
2023-05-08T07:30:57.333Z,98884.66
2023-05-08T07:33:24.718Z,98875.44
2023-05-08T07:35:51.240Z,98887.06
2023-05-08T07:38:18.128Z,98886.00
2023-05-08T07:40:44.634Z,98890.03
2023-05-08T07:43:11.248Z,98887.06
2023-05-08T07:45:37.735Z,98892.19
2023-05-08T07:48:04.500Z,98891.06
2023-05-08T07:50:31.444Z,98889.09
2023-05-08T07:52:57.930Z,98887.16
2023-05-08T07:55:24.473Z,98890.38
2023-05-08T07:57:51.104Z,98895.88
2023-05-08T08:00:18.197Z,98894.19
2023-05-08T08:02:45.402Z,98894.19
2023-05-08T08:05:12.739Z,98895.78
2023-05-08T08:07:39.626Z,98890.81
2023-05-08T08:10:07.422Z,98892.63
2023-05-08T08:12:33.965Z,98889.38
2023-05-08T08:15:00.484Z,98892.88
2023-05-08T08:17:28.653Z,98886.31
2023-05-08T08:19:55.893Z,98884.72
2023-05-08T08:22:22.589Z,98896.19
2023-05-08T08:24:49.117Z,98888.41
2023-05-08T08:27:15.869Z,98889.22
2023-05-08T08:29:42.642Z,98890.41
2023-05-08T08:32:09.756Z,98889.63
2023-05-08T08:34:36.285Z,98891.38
2023-05-08T08:37:04.824Z,98888.66
2023-05-08T08:39:36.971Z,98891.50
2023-05-08T08:42:03.890Z,98888.50
2023-05-08T08:44:30.357Z,98893.53
2023-05-08T08:46:59.264Z,98889.22
2023-05-08T08:49:35.611Z,98894.69
2023-05-08T08:52:42.578Z,98897.78
2023-05-08T08:55:15.118Z,98895.38
2023-05-08T08:57:52.282Z,98892.06
2023-05-08T09:00:21.187Z,98900.59
2023-05-08T09:02:48.237Z,98892.69
2023-05-08T09:05:15.709Z,98890.25
2023-05-08T09:07:43.868Z,98892.69
2023-05-08T09:10:15.368Z,98891.63
2023-05-08T09:12:42.570Z,98886.13
2023-05-08T09:15:09.319Z,98892.44
2023-05-08T09:17:35.886Z,98887.72
2023-05-08T09:20:02.651Z,98885.00
2023-05-08T09:22:29.717Z,98886.69
2023-05-08T09:24:58.567Z,98888.84
2023-05-08T09:27:27.025Z,98877.41
2023-05-08T09:30:07.395Z,98892.06
2023-05-08T09:32:36.341Z,98900.25
2023-05-08T09:35:04.149Z,98897.50
2023-05-08T09:37:30.848Z,98902.34
2023-05-08T09:40:13.113Z,98900.34
2023-05-08T09:42:39.752Z,98898.66
2023-05-08T09:45:06.997Z,98910.34
2023-05-08T09:47:37.341Z,98901.00
2023-05-08T09:50:10.864Z,98903.97
2023-05-08T09:52:39.342Z,98907.75
2023-05-08T09:55:08.523Z,98908.56
2023-05-08T09:57:39.125Z,98912.38
2023-05-08T10:00:09.883Z,98903.75
2023-05-08T10:02:38.046Z,98910.72
2023-05-08T10:05:08.391Z,98910.94
2023-05-08T10:07:37.276Z,98913.91
2023-05-08T10:10:05.904Z,98922.97
2023-05-08T10:12:33.589Z,98915.34
2023-05-08T10:15:00.168Z,98910.03
2023-05-08T10:17:38.046Z,98918.44
2023-05-08T10:20:07.671Z,98919.50
2023-05-08T10:22:38.238Z,98915.03
2023-05-08T10:25:10.710Z,98914.94
2023-05-08T10:27:58.917Z,98905.09
2023-05-08T10:30:26.835Z,98902.28
2023-05-08T10:32:56.522Z,98907.66
2023-05-08T10:35:25.370Z,98909.25
2023-05-08T10:37:53.511Z,98902.00
2023-05-08T10:40:21.391Z,98903.13
2023-05-08T10:42:48.403Z,98909.66
2023-05-08T10:45:15.352Z,98912.88
2023-05-08T10:48:11.151Z,98906.94
2023-05-08T10:50:51.360Z,98912.53
2023-05-08T10:53:24.811Z,98908.91
2023-05-08T10:55:52.408Z,98905.13
2023-05-08T10:58:32.106Z,98918.38
2023-05-08T11:01:07.268Z,98908.97
2023-05-08T11:03:44.829Z,98907.44
2023-05-08T11:06:12.003Z,98899.38
2023-05-08T11:08:50.153Z,98905.63
2023-05-08T11:11:38.195Z,98899.38
2023-05-08T11:14:07.481Z,98899.66
2023-05-08T11:17:01.855Z,98899.88
2023-05-08T11:19:29.063Z,98899.88
2023-05-08T11:22:15.253Z,98895.06
2023-05-08T11:25:11.714Z,98893.28
2023-05-08T11:27:41.369Z,98877.44
2023-05-08T11:30:25.643Z,98883.53
2023-05-08T11:32:59.721Z,98876.03
2023-05-08T11:35:48.134Z,98883.50
2023-05-08T11:38:38.329Z,98875.81
2023-05-08T11:41:09.937Z,98885.91
2023-05-08T11:43:44.234Z,98891.47
2023-05-08T11:46:16.723Z,98876.88
2023-05-08T11:48:43.917Z,98880.78
2023-05-08T11:51:13.673Z,98880.66
2023-05-08T11:53:40.514Z,98878.78
2023-05-08T11:56:08.059Z,98884.47
2023-05-08T11:58:34.701Z,98881.00
2023-05-08T12:01:01.202Z,98883.28
2023-05-08T12:03:27.870Z,98873.41
2023-05-08T12:05:59.166Z,98873.78
2023-05-08T12:08:26.338Z,98866.34
2023-05-08T12:10:54.274Z,98870.63
2023-05-08T12:13:21.580Z,98870.78
2023-05-08T12:15:53.966Z,98869.22
2023-05-08T12:18:21.778Z,98864.53
2023-05-08T12:20:57.076Z,98876.94
2023-05-08T12:23:26.123Z,98874.00
2023-05-08T12:25:56.513Z,98876.25
2023-05-08T12:28:23.097Z,98870.44
2023-05-08T12:30:50.505Z,98875.44
2023-05-08T12:33:18.599Z,98877.94
2023-05-08T12:35:45.262Z,98874.53
2023-05-08T12:38:13.005Z,98872.03
2023-05-08T12:40:44.887Z,98877.97
2023-05-08T12:43:12.259Z,98883.63
2023-05-08T12:45:42.044Z,98884.72
2023-05-08T12:48:10.984Z,98889.00
2023-05-08T12:50:44.926Z,98879.22
2023-05-08T12:53:15.374Z,98881.34
2023-05-08T12:55:52.748Z,98879.28
2023-05-08T12:58:20.498Z,98877.06
2023-05-08T13:00:49.673Z,98875.50
2023-05-08T13:03:26.906Z,98879.75
2023-05-08T13:05:56.421Z,98883.28
2023-05-08T13:08:37.475Z,98884.03
2023-05-08T13:11:07.651Z,98886.66
2023-05-08T13:13:35.741Z,98896.34
2023-05-08T13:16:04.532Z,98893.47
2023-05-08T13:18:31.420Z,98890.00
2023-05-08T13:20:58.726Z,98886.81
2023-05-08T13:23:25.577Z,98877.53
2023-05-08T13:25:52.139Z,98882.97
2023-05-08T13:28:18.636Z,98873.72
2023-05-08T13:30:45.169Z,98871.69
2023-05-08T13:33:11.806Z,98869.47
2023-05-08T13:35:38.910Z,98858.94
2023-05-08T13:38:06.040Z,98869.47
2023-05-08T13:40:32.742Z,98858.50
2023-05-08T13:42:59.221Z,98846.25
2023-05-08T13:45:25.819Z,98843.88
2023-05-08T13:47:52.440Z,98835.00
2023-05-08T13:50:22.181Z,98839.53
2023-05-08T13:52:49.688Z,98847.69
2023-05-08T13:55:17.895Z,98844.84
2023-05-08T13:57:44.675Z,98833.84
2023-05-08T14:00:11.780Z,98834.63
2023-05-08T14:02:38.466Z,98829.28
2023-05-08T14:05:07.274Z,98827.06
2023-05-08T14:07:34.222Z,98827.97
2023-05-08T14:10:00.832Z,98830.00
2023-05-08T14:12:27.334Z,98832.88
2023-05-08T14:14:53.842Z,98833.06
2023-05-08T14:17:20.433Z,98822.59
2023-05-08T14:19:46.900Z,98826.06
2023-05-08T14:22:13.376Z,98820.47
2023-05-08T14:24:39.988Z,98828.94
2023-05-08T14:27:06.553Z,98821.91
2023-05-08T14:29:35.999Z,98832.78
2023-05-08T14:32:02.709Z,98827.28
2023-05-08T14:34:29.302Z,98829.41
2023-05-08T14:36:56.148Z,98816.34
2023-05-08T14:39:22.644Z,98817.25
2023-05-08T14:42:13.710Z,98817.56
2023-05-08T14:44:35.734Z,98817.66
2023-05-08T14:47:02.221Z,98812.28
2023-05-08T14:49:37.602Z,98813.31
2023-05-08T14:52:06.250Z,98812.78
2023-05-08T14:54:33.034Z,98815.81
2023-05-08T14:56:59.838Z,98819.50
2023-05-08T14:59:26.507Z,98812.19
2023-05-08T15:01:53.129Z,98809.56
2023-05-08T15:04:19.763Z,98811.78
2023-05-08T15:06:46.399Z,98804.78
2023-05-08T15:09:12.877Z,98813.38
2023-05-08T15:11:39.435Z,98813.38
2023-05-08T15:14:06.180Z,98816.19
2023-05-08T15:16:32.715Z,98816.97
2023-05-08T15:18:59.247Z,98820.75
2023-05-08T15:21:26.823Z,98811.97
2023-05-08T15:23:56.282Z,98810.59
2023-05-08T15:26:23.149Z,98806.31
2023-05-08T15:28:49.888Z,98809.19
2023-05-08T15:31:17.216Z,98816.59
2023-05-08T15:33:45.180Z,98803.78
2023-05-08T15:36:15.600Z,98805.03
2023-05-08T15:38:42.874Z,98804.00
2023-05-08T15:41:14.736Z,98809.91
2023-05-08T15:43:42.297Z,98805.72
2023-05-08T15:46:08.973Z,98812.53
2023-05-08T15:48:35.587Z,98818.34
2023-05-08T15:51:02.144Z,98818.84
2023-05-08T15:53:28.757Z,98819.25
2023-05-08T15:55:56.936Z,98815.44
2023-05-08T15:58:23.727Z,98814.72
2023-05-08T16:00:50.343Z,98812.38
2023-05-08T16:03:17.256Z,98817.47
2023-05-08T16:05:44.082Z,98813.13
2023-05-08T16:08:12.848Z,98819.06
2023-05-08T16:10:40.788Z,98814.81
2023-05-08T16:13:07.751Z,98821.28
2023-05-08T16:15:34.416Z,98815.75
2023-05-08T16:18:00.989Z,98826.63
2023-05-08T16:20:27.577Z,98823.41
2023-05-08T16:22:57.404Z,98825.03
2023-05-08T16:25:24.336Z,98832.84
2023-05-08T16:27:51.350Z,98824.94
2023-05-08T16:30:18.275Z,98831.00
2023-05-08T16:32:46.086Z,98834.63
2023-05-08T16:35:12.992Z,98829.56
2023-05-08T16:37:40.204Z,98828.84
2023-05-08T16:40:08.512Z,98839.34
2023-05-08T16:42:35.282Z,98835.22
2023-05-08T16:45:02.105Z,98837.28
2023-05-08T16:47:28.563Z,98839.66
2023-05-08T16:49:55.417Z,98835.81
2023-05-08T16:52:21.908Z,98837.53
2023-05-08T16:54:48.388Z,98833.59
2023-05-08T16:57:14.953Z,98834.41
2023-05-08T16:59:41.453Z,98828.53
2023-05-08T17:02:07.987Z,98825.53
2023-05-08T17:04:34.541Z,98826.63
2023-05-08T17:07:01.068Z,98828.44
2023-05-08T17:09:27.893Z,98821.03
2023-05-08T17:11:54.400Z,98821.16
2023-05-08T17:14:21.013Z,98826.09
2023-05-08T17:16:47.635Z,98826.91
2023-05-08T17:19:14.140Z,98825.44
2023-05-08T17:21:40.658Z,98826.78
2023-05-08T17:24:07.450Z,98831.03
2023-05-08T17:26:34.141Z,98841.00
2023-05-08T17:29:00.725Z,98848.16
2023-05-08T17:31:27.640Z,98846.72
2023-05-08T17:33:54.173Z,98841.06
2023-05-08T17:36:20.763Z,98850.38
2023-05-08T17:38:47.479Z,98851.50
2023-05-08T17:41:14.434Z,98855.03
2023-05-08T17:43:40.929Z,98855.88
2023-05-08T17:46:07.778Z,98869.34
2023-05-08T17:48:34.562Z,98873.25
2023-05-08T17:51:02.786Z,98874.00
2023-05-08T17:53:32.858Z,98872.44
2023-05-08T17:55:59.311Z,98888.25
2023-05-08T17:58:25.991Z,98886.03
2023-05-08T18:00:53.956Z,98887.75
2023-05-08T18:03:20.704Z,98891.63
2023-05-08T18:05:47.499Z,98887.94
2023-05-08T18:08:13.961Z,98892.25
2023-05-08T18:10:40.907Z,98887.75
2023-05-08T18:13:07.839Z,98890.19
2023-05-08T18:15:38.893Z,98888.28
2023-05-08T18:18:05.518Z,98885.31
2023-05-08T18:20:32.251Z,98896.25
2023-05-08T18:22:58.721Z,98898.19
2023-05-08T18:25:25.210Z,98894.94
2023-05-08T18:27:51.831Z,98893.06
2023-05-08T18:30:18.292Z,98891.94
2023-05-08T18:32:44.838Z,98900.66
2023-05-08T18:35:11.543Z,98897.47
2023-05-08T18:37:38.120Z,98895.25
2023-05-08T18:40:05.129Z,98905.31
2023-05-08T18:42:31.573Z,98902.91
2023-05-08T18:45:00.268Z,98899.13
2023-05-08T18:47:26.819Z,98908.44
2023-05-08T18:49:53.398Z,98910.84
2023-05-08T18:52:19.852Z,98907.06
2023-05-08T18:54:46.362Z,98908.16
2023-05-08T18:57:12.800Z,98897.31
2023-05-08T18:59:39.297Z,98906.88
2023-05-08T19:02:05.783Z,98906.06
2023-05-08T19:04:32.260Z,98899.84
2023-05-08T19:06:58.850Z,98900.13
2023-05-08T19:09:25.309Z,98898.78
2023-05-08T19:11:51.747Z,98901.25
2023-05-08T19:14:18.183Z,98901.00
2023-05-08T19:16:44.784Z,98902.09
2023-05-08T19:19:11.398Z,98892.88
2023-05-08T19:21:38.071Z,98904.84
2023-05-08T19:24:04.879Z,98899.41
2023-05-08T19:26:31.329Z,98892.09
2023-05-08T19:28:57.858Z,98895.88
2023-05-08T19:31:24.429Z,98901.28
2023-05-08T19:33:50.966Z,98888.81
2023-05-08T19:36:18.436Z,98895.59
2023-05-08T19:38:44.934Z,98886.09
2023-05-08T19:41:11.745Z,98896.44
2023-05-08T19:43:38.163Z,98892.91
2023-05-08T19:46:04.777Z,98895.03
2023-05-08T19:48:31.341Z,98901.03
2023-05-08T19:51:04.862Z,98909.19
2023-05-08T19:53:31.320Z,98913.00
2023-05-08T19:55:57.821Z,98906.44
2023-05-08T19:58:24.514Z,98914.03
2023-05-08T20:00:51.532Z,98920.81
2023-05-08T20:03:18.788Z,98922.97
2023-05-08T20:05:45.633Z,98923.53
2023-05-08T20:08:12.134Z,98927.84
2023-05-08T20:10:38.612Z,98923.78
2023-05-08T20:13:05.614Z,98917.25
2023-05-08T20:15:32.138Z,98921.31
2023-05-08T20:17:59.635Z,98925.38
2023-05-08T20:20:27.204Z,98924.81
2023-05-08T20:22:53.691Z,98918.59
2023-05-08T20:25:20.211Z,98924.31
2023-05-08T20:27:46.907Z,98919.94
2023-05-08T20:30:13.828Z,98921.28
2023-05-08T20:32:40.631Z,98925.06
2023-05-08T20:35:07.690Z,98926.44
2023-05-08T20:37:34.898Z,98924.72
2023-05-08T20:40:04.682Z,98929.13
2023-05-08T20:42:31.139Z,98925.88
2023-05-08T20:44:57.652Z,98923.13
2023-05-08T20:47:24.131Z,98928.53
2023-05-08T20:49:50.656Z,98930.72
2023-05-08T20:52:17.165Z,98930.75
2023-05-08T20:54:45.485Z,98924.50
2023-05-08T20:57:12.996Z,98919.03
2023-05-08T20:59:39.445Z,98921.47
2023-05-08T21:02:06.010Z,98923.66
2023-05-08T21:04:32.552Z,98923.34
2023-05-08T21:06:59.156Z,98914.38
2023-05-08T21:09:25.596Z,98912.22
2023-05-08T21:11:52.161Z,98922.56
2023-05-08T21:14:18.665Z,98911.72
2023-05-08T21:16:45.130Z,98910.69
2023-05-08T21:19:13.898Z,98907.97
2023-05-08T21:21:40.637Z,98903.59
2023-05-08T21:24:07.230Z,98899.78
2023-05-08T21:26:33.767Z,98899.31
2023-05-08T21:29:01.938Z,98899.84
2023-05-08T21:31:28.894Z,98902.03
2023-05-08T21:33:55.575Z,98902.06
2023-05-08T21:36:22.165Z,98896.06
2023-05-08T21:38:48.680Z,98897.16
2023-05-08T21:41:15.116Z,98893.88
2023-05-08T21:43:41.629Z,98890.91
2023-05-08T21:46:09.207Z,98890.09
2023-05-08T21:48:36.558Z,98893.59
2023-05-08T21:51:03.159Z,98885.72
2023-05-08T21:53:29.684Z,98894.66
2023-05-08T21:55:56.180Z,98888.88
2023-05-08T21:58:22.726Z,98881.66
2023-05-08T22:00:49.264Z,98891.09
2023-05-08T22:03:15.983Z,98885.16
2023-05-08T22:05:42.498Z,98877.28
2023-05-08T22:08:08.969Z,98876.44
2023-05-08T22:10:35.768Z,98883.00
2023-05-08T22:13:02.951Z,98871.81
2023-05-08T22:15:30.800Z,98875.84
2023-05-08T22:17:58.165Z,98862.22
2023-05-08T22:20:24.949Z,98868.69
2023-05-08T22:22:51.425Z,98853.75
2023-05-08T22:25:18.082Z,98859.97
2023-05-08T22:27:44.995Z,98851.88
2023-05-08T22:30:11.661Z,98862.25
2023-05-08T22:32:38.195Z,98857.09
2023-05-08T22:35:05.681Z,98856.19
2023-05-08T22:37:32.216Z,98861.09
2023-05-08T22:39:58.702Z,98865.66
2023-05-08T22:42:25.539Z,98858.31
2023-05-08T22:44:52.197Z,98854.06
2023-05-08T22:47:18.775Z,98846.50
2023-05-08T22:49:45.347Z,98841.63
2023-05-08T22:52:11.841Z,98847.78
2023-05-08T22:54:38.302Z,98842.59
2023-05-08T22:57:04.804Z,98840.97
2023-05-08T22:59:31.382Z,98839.28
2023-05-08T23:01:57.989Z,98837.53
2023-05-08T23:04:24.584Z,98833.41
2023-05-08T23:06:51.265Z,98833.41
2023-05-08T23:09:17.739Z,98821.25
2023-05-08T23:11:44.393Z,98825.19
2023-05-08T23:14:10.894Z,98827.91
2023-05-08T23:16:37.424Z,98826.03
2023-05-08T23:19:04.574Z,98828.19
2023-05-08T23:21:32.161Z,98825.16
2023-05-08T23:23:59.066Z,98823.91
2023-05-08T23:26:26.102Z,98817.13
2023-05-08T23:28:52.746Z,98823.31
2023-05-08T23:31:19.329Z,98824.59
2023-05-08T23:33:45.940Z,98826.94
2023-05-08T23:36:12.381Z,98837.63
2023-05-08T23:38:38.823Z,98837.88
2023-05-08T23:41:05.291Z,98831.16
2023-05-08T23:43:32.043Z,98833.28
2023-05-08T23:45:58.523Z,98831.97
2023-05-08T23:48:25.810Z,98825.53
2023-05-08T23:50:52.408Z,98826.91
2023-05-08T23:53:19.013Z,98826.38
2023-05-08T23:55:45.505Z,98814.50
2023-05-08T23:58:12.021Z,98821.03
